createdAt,value
2016-06-24T00:00:35.286Z,0
2016-06-24T00:01:35.881Z,0
2016-06-24T00:02:34.671Z,0
2016-06-24T00:03:35.835Z,0
2016-06-24T00:04:35.814Z,0
2016-06-24T00:05:35.199Z,0
2016-06-24T00:06:35.190Z,0
2016-06-24T00:07:35.157Z,0
2016-06-24T00:08:35.157Z,0
2016-06-24T00:09:35.742Z,0
2016-06-24T00:10:35.720Z,0
2016-06-24T00:11:35.708Z,0
2016-06-24T00:12:34.482Z,0
2016-06-24T00:13:35.081Z,0
2016-06-24T00:14:35.067Z,0
2016-06-24T00:15:35.644Z,0
2016-06-24T00:16:35.622Z,0
2016-06-24T00:17:35.022Z,0
2016-06-24T00:18:35.588Z,0
2016-06-24T00:19:34.386Z,0
2016-06-24T00:20:35.574Z,0
2016-06-24T00:21:34.346Z,0
2016-06-24T00:22:35.526Z,0
2016-06-24T00:23:35.522Z,0
2016-06-24T00:24:34.299Z,0
2016-06-24T00:25:34.297Z,0
2016-06-24T00:26:34.870Z,0
2016-06-24T00:27:34.255Z,0
2016-06-24T00:28:35.432Z,0
2016-06-24T00:29:34.824Z,0
2016-06-24T00:30:35.391Z,0
2016-06-24T00:31:34.182Z,0
2016-06-24T00:32:34.769Z,0
2016-06-24T00:33:35.357Z,0
2016-06-24T00:34:34.736Z,0
2016-06-24T00:35:35.310Z,0
2016-06-24T00:36:34.119Z,0
2016-06-24T00:37:34.690Z,0
2016-06-24T00:38:34.680Z,0
2016-06-24T00:39:35.260Z,0
2016-06-24T00:40:34.632Z,0
2016-06-24T00:41:34.029Z,0
2016-06-24T00:42:34.604Z,0
2016-06-24T00:43:34.590Z,0
2016-06-24T00:44:35.175Z,0
2016-06-24T00:45:35.172Z,0
2016-06-24T00:46:34.553Z,0
2016-06-24T00:47:34.539Z,0
2016-06-24T00:48:33.930Z,0
2016-06-24T00:49:33.904Z,0
2016-06-24T00:50:33.903Z,0
2016-06-24T00:51:33.867Z,0
2016-06-24T00:52:34.463Z,0
2016-06-24T00:53:34.447Z,0
2016-06-24T00:54:33.828Z,0
2016-06-24T00:55:35.010Z,0
2016-06-24T00:56:34.388Z,0
2016-06-24T00:57:34.386Z,0
2016-06-24T00:58:33.759Z,0
2016-06-24T00:59:34.346Z,0
2016-06-24T01:00:33.722Z,0
2016-06-24T01:01:34.317Z,0
2016-06-24T01:02:34.343Z,0
2016-06-24T01:03:34.292Z,0
2016-06-24T01:04:34.256Z,0
2016-06-24T01:05:34.254Z,0
2016-06-24T01:06:34.234Z,0
2016-06-24T01:07:34.209Z,0
2016-06-24T01:08:34.202Z,0
2016-06-24T01:09:34.194Z,0
2016-06-24T01:10:34.165Z,0
2016-06-24T01:11:33.567Z,0
2016-06-24T01:12:34.171Z,0
2016-06-24T01:13:34.119Z,0
2016-06-24T01:14:33.502Z,0
2016-06-24T01:15:34.091Z,0
2016-06-24T01:16:34.068Z,0
2016-06-24T01:17:34.659Z,0
2016-06-24T01:18:34.052Z,0
2016-06-24T01:19:34.024Z,0
2016-06-24T01:20:34.626Z,0
2016-06-24T01:21:34.610Z,0
2016-06-24T01:22:34.606Z,0
2016-06-24T01:23:34.570Z,0
2016-06-24T01:24:33.963Z,0
2016-06-24T01:25:33.935Z,0
2016-06-24T01:26:33.898Z,0
2016-06-24T01:27:33.902Z,0
2016-06-24T01:28:34.481Z,0
2016-06-24T01:29:33.871Z,0
2016-06-24T01:30:33.850Z,0
2016-06-24T01:31:33.837Z,0
2016-06-24T01:32:33.831Z,0
2016-06-24T01:33:33.792Z,0
2016-06-24T01:34:33.196Z,0
2016-06-24T01:35:33.176Z,0
2016-06-24T01:36:33.153Z,0
2016-06-24T01:37:34.331Z,0
2016-06-24T01:38:34.319Z,0
2016-06-24T01:39:33.715Z,0
2016-06-24T01:40:34.281Z,0
2016-06-24T01:41:33.687Z,0
2016-06-24T01:42:33.102Z,0
2016-06-24T01:43:33.642Z,0
2016-06-24T01:44:33.041Z,0
2016-06-24T01:45:33.020Z,0
2016-06-24T01:46:34.193Z,0
2016-06-24T01:47:34.183Z,0
2016-06-24T01:48:33.566Z,0
2016-06-24T01:49:34.145Z,0
2016-06-24T01:50:33.530Z,0
2016-06-24T01:51:34.126Z,0
2016-06-24T01:52:32.909Z,0
2016-06-24T01:53:34.086Z,0
2016-06-24T01:54:33.479Z,0
2016-06-24T01:55:33.452Z,0
2016-06-24T01:56:32.842Z,0
2016-06-24T01:57:34.017Z,0
2016-06-24T01:58:32.809Z,0
2016-06-24T01:59:32.806Z,0
2016-06-24T02:00:33.375Z,0
2016-06-24T02:01:33.974Z,0
2016-06-24T02:02:33.403Z,0
2016-06-24T02:03:32.732Z,0
2016-06-24T02:04:33.908Z,0
2016-06-24T02:05:33.308Z,0
2016-06-24T02:06:33.282Z,0
2016-06-24T02:07:33.869Z,0
2016-06-24T02:08:32.659Z,0
2016-06-24T02:09:32.647Z,0
2016-06-24T02:10:33.233Z,0
2016-06-24T02:11:33.214Z,0
2016-06-24T02:12:33.802Z,0
2016-06-24T02:13:33.772Z,0
2016-06-24T02:14:32.565Z,0
2016-06-24T02:15:33.144Z,0
2016-06-24T02:16:33.730Z,0
2016-06-24T02:17:33.136Z,0
2016-06-24T02:18:32.509Z,0
2016-06-24T02:19:33.078Z,0
2016-06-24T02:20:33.689Z,0
2016-06-24T02:21:33.043Z,0
2016-06-24T02:22:32.420Z,0
2016-06-24T02:23:32.417Z,0
2016-06-24T02:24:33.607Z,0
2016-06-24T02:25:32.994Z,0
2016-06-24T02:26:32.991Z,0
2016-06-24T02:27:32.962Z,0
2016-06-24T02:28:33.545Z,0
2016-06-24T02:29:33.530Z,4
2016-06-24T02:30:32.908Z,4
2016-06-24T02:31:32.890Z,4
2016-06-24T02:32:32.312Z,4
2016-06-24T02:33:33.459Z,4
2016-06-24T02:34:32.247Z,4
2016-06-24T02:35:33.431Z,4
2016-06-24T02:36:32.805Z,4
2016-06-24T02:37:32.801Z,8
2016-06-24T02:38:32.774Z,4
2016-06-24T02:39:32.755Z,8
2016-06-24T02:40:33.343Z,12
2016-06-24T02:41:32.728Z,12
2016-06-24T02:42:33.306Z,12
2016-06-24T02:43:33.318Z,12
2016-06-24T02:44:33.276Z,20
2016-06-24T02:45:32.673Z,24
2016-06-24T02:46:32.658Z,20
2016-06-24T02:47:32.050Z,28
2016-06-24T02:48:32.618Z,28
2016-06-24T02:49:32.606Z,32
2016-06-24T02:50:33.196Z,40
2016-06-24T02:51:32.571Z,48
2016-06-24T02:52:33.164Z,52
2016-06-24T02:53:31.947Z,60
2016-06-24T02:54:32.521Z,68
2016-06-24T02:55:31.938Z,76
2016-06-24T02:56:32.498Z,84
2016-06-24T02:57:32.483Z,92
2016-06-24T02:58:33.054Z,104
2016-06-24T02:59:31.854Z,116
2016-06-24T03:00:32.438Z,124
2016-06-24T03:01:31.820Z,136
2016-06-24T03:02:33.059Z,148
2016-06-24T03:03:32.985Z,160
2016-06-24T03:04:32.357Z,164
2016-06-24T03:05:32.947Z,168
2016-06-24T03:06:32.334Z,172
2016-06-24T03:07:32.318Z,180
2016-06-24T03:08:31.703Z,184
2016-06-24T03:09:32.290Z,176
2016-06-24T03:10:32.278Z,172
2016-06-24T03:11:32.845Z,176
2016-06-24T03:12:32.835Z,180
2016-06-24T03:13:32.812Z,180
2016-06-24T03:14:31.607Z,184
2016-06-24T03:15:31.601Z,196
2016-06-24T03:16:32.183Z,216
2016-06-24T03:17:32.151Z,224
2016-06-24T03:18:32.145Z,220
2016-06-24T03:19:32.711Z,212
2016-06-24T03:20:32.115Z,196
2016-06-24T03:21:31.497Z,188
2016-06-24T03:22:32.081Z,184
2016-06-24T03:23:32.668Z,196
2016-06-24T03:24:31.454Z,236
2016-06-24T03:25:31.434Z,296
2016-06-24T03:26:32.030Z,360
2016-06-24T03:27:31.998Z,440
2016-06-24T03:28:32.582Z,500
2016-06-24T03:29:31.969Z,536
2016-06-24T03:30:31.355Z,536
2016-06-24T03:31:31.358Z,508
2016-06-24T03:32:32.525Z,488
2016-06-24T03:33:31.923Z,492
2016-06-24T03:34:31.288Z,532
2016-06-24T03:35:32.473Z,572
2016-06-24T03:36:31.859Z,608
2016-06-24T03:37:32.455Z,652
2016-06-24T03:38:31.816Z,704
2016-06-24T03:39:31.202Z,756
2016-06-24T03:40:31.788Z,796
2016-06-24T03:41:31.788Z,824
2016-06-24T03:42:31.762Z,848
2016-06-24T03:43:31.145Z,872
2016-06-24T03:44:32.348Z,908
2016-06-24T03:45:31.713Z,948
2016-06-24T03:46:31.713Z,996
2016-06-24T03:47:31.097Z,1048
2016-06-24T03:48:31.113Z,1128
2016-06-24T03:49:31.651Z,1236
2016-06-24T03:50:32.232Z,1332
2016-06-24T03:51:31.613Z,1420
2016-06-24T03:52:31.595Z,1500
2016-06-24T03:53:31.601Z,1572
2016-06-24T03:54:32.151Z,1716
2016-06-24T03:55:31.557Z,1880
2016-06-24T03:56:31.539Z,2060
2016-06-24T03:57:30.934Z,2252
2016-06-24T03:58:32.094Z,2424
2016-06-24T03:59:31.493Z,2528
2016-06-24T04:00:32.081Z,2616
2016-06-24T04:01:32.058Z,2752
2016-06-24T04:02:31.449Z,2936
2016-06-24T04:03:31.423Z,3096
2016-06-24T04:04:32.014Z,3268
2016-06-24T04:05:31.399Z,3272
2016-06-24T04:06:31.375Z,3032
2016-06-24T04:07:31.360Z,2644
2016-06-24T04:08:31.337Z,2240
2016-06-24T04:09:30.733Z,1868
2016-06-24T04:10:31.317Z,1548
2016-06-24T04:11:30.693Z,1340
2016-06-24T04:12:31.292Z,1184
2016-06-24T04:13:31.268Z,1036
2016-06-24T04:14:30.644Z,936
2016-06-24T04:15:30.639Z,872
2016-06-24T04:16:30.619Z,816
2016-06-24T04:17:31.799Z,744
2016-06-24T04:18:31.188Z,684
2016-06-24T04:19:30.582Z,652
2016-06-24T04:20:31.743Z,648
2016-06-24T04:21:31.142Z,672
2016-06-24T04:22:31.715Z,716
2016-06-24T04:23:30.507Z,768
2016-06-24T04:24:31.088Z,836
2016-06-24T04:25:31.076Z,924
2016-06-24T04:26:31.655Z,1008
2016-06-24T04:27:31.040Z,1116
2016-06-24T04:28:31.024Z,1280
2016-06-24T04:29:30.410Z,1508
2016-06-24T04:30:31.599Z,1824
2016-06-24T04:31:30.974Z,2224
2016-06-24T04:32:30.959Z,2596
2016-06-24T04:33:31.548Z,2916
2016-06-24T04:34:30.340Z,3244
2016-06-24T04:35:31.514Z,3532
2016-06-24T04:36:30.898Z,3788
2016-06-24T04:37:30.878Z,4076
2016-06-24T04:38:30.865Z,4460
2016-06-24T04:39:30.861Z,5012
2016-06-24T04:40:30.231Z,5652
2016-06-24T04:41:30.224Z,6412
2016-06-24T04:42:31.391Z,7212
2016-06-24T04:43:31.387Z,7736
2016-06-24T04:44:30.770Z,8092
2016-06-24T04:45:31.353Z,8336
2016-06-24T04:46:30.141Z,8508
2016-06-24T04:47:31.329Z,8772
2016-06-24T04:48:30.706Z,8912
2016-06-24T04:49:30.686Z,9008
2016-06-24T04:50:30.079Z,9092
2016-06-24T04:51:30.671Z,9328
2016-06-24T04:52:30.642Z,9532
2016-06-24T04:53:30.640Z,10064
2016-06-24T04:54:30.625Z,11316
2016-06-24T04:55:30.012Z,13296
2016-06-24T04:56:30.599Z,15396
2016-06-24T04:57:29.971Z,16960
2016-06-24T04:58:30.557Z,17376
2016-06-24T04:59:31.257Z,17856
2016-06-24T05:00:30.527Z,18784
2016-06-24T05:01:30.519Z,19424
2016-06-24T05:02:31.114Z,19488
2016-06-24T05:03:31.087Z,19328
2016-06-24T05:04:31.081Z,18528
2016-06-24T05:05:29.879Z,16620
2016-06-24T05:06:30.443Z,13392
2016-06-24T05:07:30.431Z,9632
2016-06-24T05:08:30.422Z,6796
2016-06-24T05:09:31.007Z,5188
2016-06-24T05:10:30.394Z,4116
2016-06-24T05:11:30.385Z,3296
2016-06-24T05:12:30.369Z,2720
2016-06-24T05:13:30.954Z,2340
2016-06-24T05:14:29.740Z,2028
2016-06-24T05:15:29.735Z,1740
2016-06-24T05:16:30.321Z,1536
2016-06-24T05:17:30.293Z,1432
2016-06-24T05:18:30.878Z,1432
2016-06-24T05:19:30.263Z,1480
2016-06-24T05:20:30.859Z,1596
2016-06-24T05:21:29.654Z,1708
2016-06-24T05:22:30.235Z,1852
2016-06-24T05:23:30.212Z,2072
2016-06-24T05:24:30.190Z,2384
2016-06-24T05:25:30.177Z,2868
2016-06-24T05:26:30.173Z,3480
2016-06-24T05:27:30.182Z,4424
2016-06-24T05:28:30.150Z,5476
2016-06-24T05:29:30.129Z,6676
2016-06-24T05:30:29.515Z,7788
2016-06-24T05:31:30.119Z,8640
2016-06-24T05:32:30.098Z,9376
2016-06-24T05:33:29.463Z,10420
2016-06-24T05:34:30.659Z,11288
2016-06-24T05:35:30.047Z,12260
2016-06-24T05:36:29.422Z,15424
2016-06-24T05:37:30.017Z,13672
2016-06-24T05:38:30.588Z,11900
2016-06-24T05:39:29.392Z,11676
2016-06-24T05:40:30.559Z,11440
2016-06-24T05:41:29.357Z,11356
2016-06-24T05:42:29.934Z,10916
2016-06-24T05:43:29.334Z,10956
2016-06-24T05:44:30.497Z,11996
2016-06-24T05:45:29.885Z,12732
2016-06-24T05:46:29.883Z,12428
2016-06-24T05:47:29.866Z,11576
2016-06-24T05:48:29.859Z,10928
2016-06-24T05:49:29.826Z,11416
2016-06-24T05:50:29.828Z,12368
2016-06-24T05:51:29.812Z,12624
2016-06-24T05:52:29.198Z,12900
2016-06-24T05:53:29.185Z,12956
2016-06-24T05:54:30.376Z,12300
2016-06-24T05:55:29.749Z,10392
2016-06-24T05:56:29.751Z,7636
2016-06-24T05:57:29.767Z,7280
2016-06-24T05:58:29.719Z,8972
2016-06-24T05:59:29.718Z,10700
2016-06-24T06:00:29.086Z,12104
2016-06-24T06:01:29.072Z,13260
2016-06-24T06:02:29.064Z,13832
2016-06-24T06:03:29.042Z,14548
2016-06-24T06:04:30.221Z,15544
2016-06-24T06:05:29.618Z,16916
2016-06-24T06:06:28.998Z,18656
2016-06-24T06:07:29.591Z,20192
2016-06-24T06:08:28.982Z,20928
2016-06-24T06:09:29.550Z,21248
2016-06-24T06:10:28.945Z,21664
2016-06-24T06:11:30.127Z,22944
2016-06-24T06:12:30.115Z,22752
2016-06-24T06:13:28.903Z,23232
2016-06-24T06:14:30.097Z,21088
2016-06-24T06:15:30.080Z,19424
2016-06-24T06:16:30.061Z,18368
2016-06-24T06:17:29.462Z,17504
2016-06-24T06:18:29.458Z,16128
2016-06-24T06:19:29.420Z,14780
2016-06-24T06:20:29.415Z,13716
2016-06-24T06:21:29.402Z,13152
2016-06-24T06:22:28.790Z,12484
2016-06-24T06:23:28.778Z,11968
2016-06-24T06:24:29.360Z,11736
2016-06-24T06:25:29.355Z,11740
2016-06-24T06:26:29.333Z,11544
2016-06-24T06:27:28.735Z,10960
2016-06-24T06:28:29.306Z,10464
2016-06-24T06:29:29.903Z,10984
2016-06-24T06:30:28.697Z,12172
2016-06-24T06:31:29.270Z,12948
2016-06-24T06:32:30.016Z,13760
2016-06-24T06:33:29.247Z,13644
2016-06-24T06:34:29.229Z,14116
2016-06-24T06:35:29.221Z,12668
2016-06-24T06:36:29.192Z,11704
2016-06-24T06:37:29.791Z,10256
2016-06-24T06:38:28.577Z,7712
2016-06-24T06:39:29.785Z,6556
2016-06-24T06:40:28.551Z,6152
2016-06-24T06:41:29.140Z,5996
2016-06-24T06:42:28.527Z,6012
2016-06-24T06:43:29.122Z,6120
2016-06-24T06:44:28.501Z,6356
2016-06-24T06:45:29.696Z,6920
2016-06-24T06:46:29.675Z,7904
2016-06-24T06:47:29.053Z,9224
2016-06-24T06:48:29.048Z,10748
2016-06-24T06:49:29.040Z,12128
2016-06-24T06:50:29.617Z,12964
2016-06-24T06:51:29.008Z,13012
2016-06-24T06:52:29.600Z,12800
2016-06-24T06:53:29.581Z,12972
2016-06-24T06:54:28.406Z,13676
2016-06-24T06:55:29.563Z,14764
2016-06-24T06:56:29.543Z,15808
2016-06-24T06:57:28.982Z,16688
2016-06-24T06:58:29.510Z,16700
2016-06-24T06:59:28.911Z,15940
2016-06-24T07:00:28.883Z,14660
2016-06-24T07:01:29.468Z,13216
2016-06-24T07:02:28.875Z,11840
2016-06-24T07:03:28.854Z,10816
2016-06-24T07:04:28.855Z,10040
2016-06-24T07:05:28.874Z,9676
2016-06-24T07:06:29.516Z,9356
2016-06-24T07:07:29.503Z,8980
2016-06-24T07:08:28.798Z,8420
2016-06-24T07:09:29.098Z,7864
2016-06-24T07:10:29.034Z,7380
2016-06-24T07:11:28.772Z,7000
2016-06-24T07:12:28.138Z,6788
2016-06-24T07:13:28.131Z,6948
2016-06-24T07:14:28.115Z,7512
2016-06-24T07:15:28.723Z,8348
2016-06-24T07:16:28.688Z,9508
2016-06-24T07:17:28.167Z,11000
2016-06-24T07:18:28.662Z,12740
2016-06-24T07:19:29.252Z,14448
2016-06-24T07:20:29.239Z,16012
2016-06-24T07:21:28.008Z,17568
2016-06-24T07:22:29.191Z,18944
2016-06-24T07:23:28.601Z,20160
2016-06-24T07:24:28.013Z,21248
2016-06-24T07:25:27.974Z,21888
2016-06-24T07:26:29.166Z,21920
2016-06-24T07:27:28.562Z,21600
2016-06-24T07:28:28.544Z,20480
2016-06-24T07:29:28.531Z,19552
2016-06-24T07:30:27.918Z,18624
2016-06-24T07:31:29.089Z,18176
2016-06-24T07:32:27.883Z,18080
2016-06-24T07:33:27.872Z,19584
2016-06-24T07:34:29.055Z,22208
2016-06-24T07:35:28.454Z,27104
2016-06-24T07:36:27.839Z,25376
2016-06-24T07:37:28.450Z,27616
2016-06-24T07:38:28.414Z,26400
2016-06-24T07:39:27.802Z,25312
2016-06-24T07:40:27.799Z,22304
2016-06-24T07:41:28.375Z,25248
2016-06-24T07:42:28.970Z,19904
2016-06-24T07:43:28.396Z,19264
2016-06-24T07:44:27.747Z,19072
2016-06-24T07:45:28.349Z,18048
2016-06-24T07:46:28.931Z,16844
2016-06-24T07:47:28.321Z,14696
2016-06-24T07:48:27.710Z,13068
2016-06-24T07:49:28.282Z,13360
2016-06-24T07:50:28.878Z,14808
2016-06-24T07:51:27.673Z,16260
2016-06-24T07:52:27.657Z,17316
2016-06-24T07:53:28.828Z,18336
2016-06-24T07:54:28.222Z,18976
2016-06-24T07:55:28.211Z,31008
2016-06-24T07:56:27.605Z,23360
2016-06-24T07:57:28.808Z,29632
2016-06-24T07:58:27.587Z,29120
2016-06-24T07:59:28.777Z,39104
2016-06-24T08:00:28.761Z,50624
2016-06-24T08:01:27.557Z,41664
2016-06-24T08:02:27.526Z,30048
2016-06-24T08:03:27.534Z,63840
2016-06-24T08:04:27.522Z,85472
2016-06-24T08:05:28.717Z,31904
2016-06-24T08:06:28.124Z,27712
2016-06-24T08:07:28.085Z,46336
2016-06-24T08:08:28.072Z,24480
2016-06-24T08:09:28.672Z,25056
2016-06-24T08:10:28.659Z,48384
2016-06-24T08:11:28.652Z,20480
2016-06-24T08:12:28.079Z,19488
2016-06-24T08:13:28.640Z,20128
2016-06-24T08:14:28.020Z,21376
2016-06-24T08:15:28.014Z,21952
2016-06-24T08:16:27.413Z,20704
2016-06-24T08:17:28.599Z,19264
2016-06-24T08:18:28.574Z,19584
2016-06-24T08:19:27.396Z,22208
2016-06-24T08:20:27.967Z,27392
2016-06-24T08:21:27.957Z,26208
2016-06-24T08:22:28.559Z,36800
2016-06-24T08:23:27.346Z,28736
2016-06-24T08:24:28.521Z,28064
2016-06-24T08:25:28.521Z,54656
2016-06-24T08:26:27.313Z,33536
2016-06-24T08:27:28.504Z,28256
2016-06-24T08:28:27.899Z,26496
2016-06-24T08:29:27.885Z,25344
2016-06-24T08:30:27.275Z,23616
2016-06-24T08:31:27.268Z,21088
2016-06-24T08:32:27.842Z,19136
2016-06-24T08:33:27.838Z,18752
2016-06-24T08:34:28.426Z,19488
2016-06-24T08:35:27.832Z,19904
2016-06-24T08:36:28.011Z,19904
2016-06-24T08:37:28.398Z,20224
2016-06-24T08:38:27.798Z,21696
2016-06-24T08:39:27.797Z,23808
2016-06-24T08:40:27.779Z,25024
2016-06-24T08:41:27.156Z,26976
2016-06-24T08:42:27.162Z,28160
2016-06-24T08:43:27.758Z,27552
2016-06-24T08:44:27.732Z,26336
2016-06-24T08:45:27.731Z,24864
2016-06-24T08:46:27.160Z,23968
2016-06-24T08:47:27.721Z,23360
2016-06-24T08:48:28.298Z,22656
2016-06-24T08:49:27.097Z,21920
2016-06-24T08:50:27.670Z,21312
2016-06-24T08:51:28.267Z,21056
2016-06-24T08:52:27.679Z,21056
2016-06-24T08:53:27.634Z,21376
2016-06-24T08:54:27.046Z,22272
2016-06-24T08:55:28.259Z,23488
2016-06-24T08:56:28.209Z,24608
2016-06-24T08:57:28.305Z,25408
2016-06-24T08:58:27.007Z,25536
2016-06-24T08:59:27.594Z,25248
2016-06-24T09:00:26.985Z,24832
2016-06-24T09:01:28.189Z,24544
2016-06-24T09:02:27.582Z,24384
2016-06-24T09:03:27.572Z,24064
2016-06-24T09:04:28.139Z,23616
2016-06-24T09:05:26.932Z,23136
2016-06-24T09:06:27.521Z,22720
2016-06-24T09:07:27.527Z,22240
2016-06-24T09:08:28.113Z,21632
2016-06-24T09:09:27.496Z,20704
2016-06-24T09:10:26.883Z,19616
2016-06-24T09:11:27.494Z,18560
2016-06-24T09:12:28.062Z,17728
2016-06-24T09:13:26.858Z,16928
2016-06-24T09:14:26.845Z,16588
2016-06-24T09:15:27.439Z,16472
2016-06-24T09:16:27.412Z,16760
2016-06-24T09:17:28.013Z,17984
2016-06-24T09:18:27.412Z,19680
2016-06-24T09:19:28.004Z,21536
2016-06-24T09:20:26.797Z,23168
2016-06-24T09:21:27.391Z,24352
2016-06-24T09:22:26.759Z,25088
2016-06-24T09:23:26.758Z,25376
2016-06-24T09:24:27.947Z,25376
2016-06-24T09:25:27.936Z,25312
2016-06-24T09:26:27.923Z,25408
2016-06-24T09:27:27.322Z,25600
2016-06-24T09:28:27.911Z,26112
2016-06-24T09:29:27.306Z,26560
2016-06-24T09:30:26.691Z,27136
2016-06-24T09:31:27.279Z,28672
2016-06-24T09:32:27.873Z,31264
2016-06-24T09:33:27.872Z,36448
2016-06-24T09:34:27.255Z,44416
2016-06-24T09:35:27.230Z,62752
2016-06-24T09:36:27.237Z,45056
2016-06-24T09:37:27.818Z,33632
2016-06-24T09:38:27.226Z,44352
2016-06-24T09:39:27.206Z,61408
2016-06-24T09:40:27.226Z,55648
2016-06-24T09:41:27.189Z,96928
2016-06-24T09:42:27.281Z,95840
2016-06-24T09:43:26.595Z,98048
2016-06-24T09:44:27.182Z,93344
2016-06-24T09:45:27.190Z,86624
2016-06-24T09:46:27.170Z,85824
2016-06-24T09:47:27.147Z,73952
2016-06-24T09:48:27.140Z,36352
2016-06-24T09:49:27.736Z,89408
2016-06-24T09:50:26.532Z,88128
2016-06-24T09:51:27.812Z,73440
2016-06-24T09:52:27.753Z,74848
2016-06-24T09:53:27.704Z,91584
2016-06-24T09:54:27.105Z,84832
2016-06-24T09:55:26.498Z,88160
2016-06-24T09:56:27.107Z,28608
2016-06-24T09:57:27.147Z,77760
2016-06-24T09:58:27.114Z,30624
2016-06-24T09:59:27.092Z,76480
2016-06-24T10:00:27.081Z,80992
2016-06-24T10:01:26.481Z,53504
2016-06-24T10:02:26.496Z,95712
2016-06-24T10:03:27.082Z,67136
2016-06-24T10:04:26.469Z,48992
2016-06-24T10:05:26.483Z,36608
2016-06-24T10:06:27.666Z,31264
2016-06-24T10:07:27.129Z,29088
2016-06-24T10:08:26.535Z,30816
2016-06-24T10:09:27.666Z,30208
2016-06-24T10:10:26.471Z,45952
2016-06-24T10:11:27.774Z,87840
2016-06-24T10:12:27.049Z,29536
2016-06-24T10:13:26.457Z,91680
2016-06-24T10:14:27.044Z,90400
2016-06-24T10:15:27.072Z,39104
2016-06-24T10:16:26.427Z,20992
2016-06-24T10:17:27.623Z,89888
2016-06-24T10:18:27.640Z,90624
2016-06-24T10:19:26.522Z,86912
2016-06-24T10:20:26.997Z,86976
2016-06-24T10:21:26.401Z,88928
2016-06-24T10:22:26.410Z,93888
2016-06-24T10:23:26.433Z,47744
2016-06-24T10:24:26.989Z,17984
2016-06-24T10:25:49.633Z,22912
2016-06-24T10:26:50.769Z,6076
2016-06-24T10:27:49.553Z,0
2016-06-24T10:28:51.420Z,100960
2016-06-24T10:29:51.342Z,75264
2016-06-24T10:30:50.179Z,88128
2016-06-24T10:31:50.132Z,96800
2016-06-24T10:32:50.818Z,100672
2016-06-24T10:33:51.516Z,79392
2016-06-24T10:34:50.113Z,51648
2016-06-24T10:35:50.819Z,36544
2016-06-24T10:36:52.151Z,31936
2016-06-24T10:37:50.872Z,101216
2016-06-24T10:38:50.120Z,62304
2016-06-24T10:39:50.810Z,103456
2016-06-24T10:40:51.419Z,71232
2016-06-24T10:41:51.307Z,51072
2016-06-24T10:42:50.715Z,57120
2016-06-24T10:43:50.069Z,93664
2016-06-24T10:44:51.258Z,46176
2016-06-24T10:45:50.655Z,79104
2016-06-24T10:46:50.672Z,74496
2016-06-24T10:47:50.842Z,72224
2016-06-24T10:48:50.845Z,61856
2016-06-24T10:49:50.672Z,110720
2016-06-24T10:50:50.649Z,119264
2016-06-24T10:51:51.406Z,115776
2016-06-24T10:52:51.524Z,119200
2016-06-24T10:53:50.103Z,107072
2016-06-24T10:54:51.405Z,105024
2016-06-24T10:55:50.752Z,95040
2016-06-24T10:56:50.623Z,108384
2016-06-24T10:57:50.042Z,110272
2016-06-24T10:58:50.078Z,108672
2016-06-24T10:59:51.513Z,109312
2016-06-24T11:00:50.025Z,103520
2016-06-24T11:01:51.212Z,105952
2016-06-24T11:02:51.367Z,78720
2016-06-24T11:03:50.009Z,59136
2016-06-24T11:04:50.686Z,43072
2016-06-24T11:05:50.612Z,93728
2016-06-24T11:06:51.227Z,102016
2016-06-24T11:07:51.236Z,61536
2016-06-24T11:08:50.023Z,35168
2016-06-24T11:09:51.223Z,42176
2016-06-24T11:10:51.219Z,39648
2016-06-24T11:11:51.244Z,49056
2016-06-24T11:12:50.645Z,58400
2016-06-24T11:13:50.636Z,88416
2016-06-24T11:14:51.209Z,97152
2016-06-24T11:15:51.283Z,96064
2016-06-24T11:16:51.322Z,93984
2016-06-24T11:17:51.217Z,94176
2016-06-24T11:18:50.625Z,45088
2016-06-24T11:19:50.622Z,57088
2016-06-24T11:20:51.223Z,87136
2016-06-24T11:21:51.217Z,105728
2016-06-24T11:22:50.006Z,102944
2016-06-24T11:23:50.023Z,85696
2016-06-24T11:24:50.622Z,102432
2016-06-24T11:25:50.625Z,84256
2016-06-24T11:26:50.617Z,95360
2016-06-24T11:27:50.619Z,99872
2016-06-24T11:28:51.217Z,103904
2016-06-24T11:29:50.617Z,111872
2016-06-24T11:30:49.445Z,107712
2016-06-24T11:31:51.222Z,49856
2016-06-24T11:32:51.457Z,49920
2016-06-24T11:33:50.102Z,48736
2016-06-24T11:34:50.792Z,82560
2016-06-24T11:35:50.675Z,82016
2016-06-24T11:36:51.281Z,55104
2016-06-24T11:37:51.243Z,46944
2016-06-24T11:38:50.816Z,85792
2016-06-24T11:39:51.036Z,48064
2016-06-24T11:40:50.632Z,39456
2016-06-24T11:41:51.527Z,35904
2016-06-24T11:42:51.308Z,29632
2016-06-24T11:43:50.983Z,29664
2016-06-24T11:44:51.895Z,31104
2016-06-24T11:45:51.681Z,28352
2016-06-24T11:46:51.262Z,33280
2016-06-24T11:47:50.821Z,38912
2016-06-24T11:48:51.343Z,34144
2016-06-24T11:49:51.287Z,33696
2016-06-24T11:50:50.680Z,33664
2016-06-24T11:51:50.053Z,31488
2016-06-24T11:52:50.621Z,28800
2016-06-24T11:53:49.982Z,29792
2016-06-24T11:54:50.675Z,31680
2016-06-24T11:55:51.205Z,34048
2016-06-24T11:56:49.384Z,26560
2016-06-24T11:57:50.601Z,23264
2016-06-24T11:58:50.825Z,27552
2016-06-24T11:59:51.432Z,29600
2016-06-24T12:00:50.574Z,32000
2016-06-24T12:01:50.052Z,34432
2016-06-24T12:02:50.667Z,33696
2016-06-24T12:03:50.581Z,29760
2016-06-24T12:04:49.376Z,27008
2016-06-24T12:05:49.952Z,25408
2016-06-24T12:06:51.252Z,25504
2016-06-24T12:07:50.550Z,27232
2016-06-24T12:08:50.535Z,28704
2016-06-24T12:09:49.923Z,28544
2016-06-24T12:10:49.904Z,28256
2016-06-24T12:11:50.503Z,31552
2016-06-24T12:12:49.944Z,33056
2016-06-24T12:13:49.871Z,34688
2016-06-24T12:14:50.692Z,32832
2016-06-24T12:15:50.482Z,30560
2016-06-24T12:16:50.459Z,26912
2016-06-24T12:17:50.452Z,23104
2016-06-24T12:18:51.040Z,22848
2016-06-24T12:19:50.454Z,24576
2016-06-24T12:20:51.029Z,25536
2016-06-24T12:21:49.827Z,28864
2016-06-24T12:22:50.418Z,28768
2016-06-24T12:23:51.073Z,27904
2016-06-24T12:24:49.808Z,26176
2016-06-24T12:25:51.027Z,25568
2016-06-24T12:26:50.398Z,24128
2016-06-24T12:27:51.081Z,23104
2016-06-24T12:28:49.778Z,22304
2016-06-24T12:29:50.961Z,20640
2016-06-24T12:30:50.379Z,20992
2016-06-24T12:31:50.973Z,20704
2016-06-24T12:32:49.159Z,19584
2016-06-24T12:33:50.940Z,18528
2016-06-24T12:34:49.751Z,16980
2016-06-24T12:35:50.595Z,15844
2016-06-24T12:36:50.314Z,15136
2016-06-24T12:37:50.902Z,14644
2016-06-24T12:38:50.312Z,15464
2016-06-24T12:39:49.701Z,18848
2016-06-24T12:40:50.298Z,22944
2016-06-24T12:41:50.281Z,28640
2016-06-24T12:42:49.670Z,35392
2016-06-24T12:43:50.266Z,43360
2016-06-24T12:44:50.253Z,46464
2016-06-24T12:45:49.631Z,45472
2016-06-24T12:46:49.639Z,50944
2016-06-24T12:47:49.632Z,41568
2016-06-24T12:48:50.221Z,36320
2016-06-24T12:49:50.204Z,33408
2016-06-24T12:50:50.801Z,33440
2016-06-24T12:51:50.504Z,32928
2016-06-24T12:52:50.183Z,34752
2016-06-24T12:53:50.196Z,37920
2016-06-24T12:54:50.192Z,36544
2016-06-24T12:55:49.584Z,38080
2016-06-24T12:56:50.157Z,41120
2016-06-24T12:57:49.573Z,40000
2016-06-24T12:58:50.187Z,33728
2016-06-24T12:59:49.552Z,25728
2016-06-24T13:00:50.148Z,19424
2016-06-24T13:01:50.127Z,15932
2016-06-24T13:02:50.110Z,15028
2016-06-24T13:03:49.503Z,17920
2016-06-24T13:04:50.123Z,21824
2016-06-24T13:05:49.494Z,24256
2016-06-24T13:06:49.477Z,24416
2016-06-24T13:07:50.657Z,21536
2016-06-24T13:08:50.674Z,18144
2016-06-24T13:09:50.056Z,15288
2016-06-24T13:10:49.479Z,12748
2016-06-24T13:11:48.847Z,10956
2016-06-24T13:12:50.628Z,10236
2016-06-24T13:13:49.430Z,10336
2016-06-24T13:14:49.440Z,10316
2016-06-24T13:15:48.816Z,10344
2016-06-24T13:16:50.024Z,10424
2016-06-24T13:17:50.004Z,9808
2016-06-24T13:18:48.805Z,9056
2016-06-24T13:19:50.589Z,10308
2016-06-24T13:20:50.603Z,14288
2016-06-24T13:21:49.375Z,19584